Cardinal — V7IB3 — position and weather

sailwx.info

Track history (hours):
 
Tides and Currents Weather Stations Pressure Air Temp Water Temp Dewpoint Dewpoint Depression Visibility Wind Speed Wind Dir Waves Ship Positions

Cardinal

Last reported at 2016-May-22 14:33 UTC. Time now 2016-May-27 08:26 UTC.
Position N 36°42' E 122°55'.

Length 191 m; draft 6.4 m.

Type: Cargo ship. MMSI: 538002349.

Date/timePositionNaut miles runAvg speedWind from/ knotsBaromVisibWave heightAir tempDewpointWater temp
2016-May-22 14:33N 36°42' E 122°55'1211.6
2016-May-22 13:33N 36°54' E 122°54'1110.9
2016-May-22 12:32N 37°05' E 122°50'1010.1
2016-May-22 11:33N 37°14' E 122°48'7 6.6
2016-May-22 10:32N 37°21' E 122°48'9 9.5
2016-May-22 09:33N 37°30' E 122°43'1110.2
2016-May-22 08:31N 37°35' E 122°32'1111.1
2016-May-22 07:33N 37°38' E 122°19'1111.3
2016-May-22 06:33N 37°40' E 122°04'1311.6
2016-May-22 05:26N 37°40' E 121°48'1011.2
2016-May-22 04:33N 37°40' E 121°36'12 1.5
2016-May-21 20:10N 37°34' E 121°23'0 0.0
2016-May-21 19:16N 37°34' E 121°23'0 0.0
2016-May-20 21:33N 37°34' E 121°23'0 0.0
2016-May-20 20:21N 37°34' E 121°23'0 0.0
2016-May-20 16:21N 37°34' E 121°23'0 0.0
2016-May-20 10:30N 37°34' E 121°23'7 7.5
2016-May-20 09:33N 37°39' E 121°30'1 1.1
2016-May-20 08:29N 37°39' E 121°31'0 0.0
2016-May-20 07:33N 37°39' E 121°31'0 0.0
2016-May-19 21:08N 37°39' E 121°31'0 0.7
2016-May-19 20:34N 37°39' E 121°32'21 8.7
2016-May-19 18:11N 37°57' E 121°20'912.4
2016-May-19 17:26N 38°06' E 121°16'1112.2
2016-May-19 16:34N 38°16' E 121°10'1410.5
2016-May-19 15:16N 38°28' E 121°03'9111.4
2016-May-19 07:20N 39°39' E 119°50'911.6
2016-May-19 06:33N 39°46' E 119°43'9 9.2
2016-May-19 05:34N 39°54' E 119°36'1 1.2
2016-May-19 04:32N 39°54' E 119°35'0 0.0
2016-May-19 03:26N 39°54' E 119°35'0 0.0
2016-May-19 02:32N 39°54' E 119°35'0 0.0
2016-May-19 01:32N 39°54' E 119°35'0 0.0
2016-May-19 00:20N 39°54' E 119°35'0 0.1
2016-May-18 23:32N 39°54' E 119°35'0 0.0
2016-May-18 22:26N 39°54' E 119°35'0 0.0
2016-May-18 21:32N 39°54' E 119°35'0 0.0
2016-May-18 20:32N 39°54' E 119°35'0 0.0
2016-May-18 19:14N 39°54' E 119°35'0 0.0
2016-May-18 18:20N 39°54' E 119°35'0 0.0
2016-May-18 17:26N 39°54' E 119°35'0 0.0
2016-May-18 14:20N 39°54' E 119°35'0 0.0
2016-May-18 11:08N 39°54' E 119°35'0 0.0
2016-May-18 10:32N 39°54' E 119°35'0 0.0
2016-May-18 09:26N 39°54' E 119°35'0 0.0
2016-May-18 08:08N 39°54' E 119°35'0 0.0
2016-May-18 07:32N 39°54' E 119°35'0 0.0
2016-May-18 06:32N 39°54' E 119°35'0 0.0
2016-May-18 04:32N 39°54' E 119°35'0 0.0
2016-May-18 03:26N 39°54' E 119°35'0 0.0
2016-May-17 21:26N 39°54' E 119°35'0 0.0
2016-May-17 19:08N 39°54' E 119°35'0 0.0
2016-May-17 18:32N 39°54' E 119°35'0 0.0
2016-May-17 17:32N 39°54' E 119°35'0 0.0
2016-May-17 16:32N 39°54' E 119°35'0 0.0
2016-May-17 14:26N 39°54' E 119°35'0 0.0
2016-May-17 13:32N 39°54' E 119°35'0 0.0
2016-May-17 12:32N 39°54' E 119°35'0 0.0
2016-May-17 11:26N 39°54' E 119°35'0 0.0
2016-May-17 09:26N 39°54' E 119°35'0 0.0
2016-May-17 08:33N 39°54' E 119°35'0 0.0
2016-May-17 07:34N 39°54' E 119°35'0 0.0
2016-May-17 06:33N 39°54' E 119°35'0 0.0
2016-May-17 05:33N 39°54' E 119°35'0 0.0
2016-May-17 04:32N 39°54' E 119°35'0 0.0
2016-May-17 03:32N 39°54' E 119°35'0 0.0
2016-May-17 02:33N 39°54' E 119°35'0 0.0
2016-May-17 01:33N 39°54' E 119°35'0 0.0
2016-May-17 00:34N 39°54' E 119°35'0 0.0
2016-May-16 23:29N 39°54' E 119°35'0 0.0
2016-May-16 22:33N 39°54' E 119°35'0 0.0
2016-May-16 21:33N 39°54' E 119°35'0 0.0
2016-May-16 20:33N 39°54' E 119°35'0 0.0
2016-May-16 19:32N 39°54' E 119°35'0 0.0
2016-May-16 18:32N 39°54' E 119°35'0 0.0
2016-May-16 17:33N 39°54' E 119°35'0 0.0
2016-May-16 16:33N 39°54' E 119°35'0 0.0
2016-May-16 15:30N 39°54' E 119°35'0 0.0
2016-May-16 14:32N 39°54' E 119°35'0 0.0
2016-May-16 13:34N 39°54' E 119°35'0 0.0
2016-May-16 12:33N 39°54' E 119°35'0 0.0
2016-May-16 11:34N 39°54' E 119°35'0 0.0
2016-May-16 10:34N 39°54' E 119°35'0 0.0
2016-May-16 09:34N 39°54' E 119°35'0 0.0
2016-May-16 08:33N 39°54' E 119°35'0 0.0
2016-May-16 07:33N 39°54' E 119°35'1 1.1
2016-May-16 06:34N 39°54' E 119°36'6 6.3
2016-May-16 05:33N 39°48' E 119°40'162 4.7
2016-May-14 19:05N 37°58' E 122°12'712.0
2016-May-14 18:30N 37°52' E 122°18'1212.6
2016-May-14 17:33N 37°45' E 122°30'1413.9
2016-May-14 16:32N 37°36' E 122°43'1414.0
2016-May-14 15:33N 37°24' E 122°51'1413.0
2016-May-14 14:28N 37°10' E 122°55'1112.5
2016-May-14 13:33N 36°59' E 122°57'1312.7
2016-May-14 12:31N 36°46' E 122°53'13213.1
2016-May-14 02:26N 34°34' E 123°07'  
Track history (hours):
 
Tides and Currents Weather Stations Pressure Air Temp Water Temp Dewpoint Dewpoint Depression Visibility Wind Speed Wind Dir Waves Ship Positions

Cardinal

Last reported at 2016-May-22 14:33 UTC. Time now 2016-May-27 08:26 UTC.
Position N 36°42' E 122°55'.

Length 191 m; draft 6.4 m.

Type: Cargo ship. MMSI: 538002349.

Date/timePositionNaut miles runAvg speedWind from/ knotsBaromVisibWave heightAir tempDewpointWater temp
2016-May-22 14:33N 36°42' E 122°55'1211.6
2016-May-22 13:33N 36°54' E 122°54'1110.9
2016-May-22 12:32N 37°05' E 122°50'1010.1
2016-May-22 11:33N 37°14' E 122°48'7 6.6
2016-May-22 10:32N 37°21' E 122°48'9 9.5
2016-May-22 09:33N 37°30' E 122°43'1110.2
2016-May-22 08:31N 37°35' E 122°32'1111.1
2016-May-22 07:33N 37°38' E 122°19'1111.3
2016-May-22 06:33N 37°40' E 122°04'1311.6
2016-May-22 05:26N 37°40' E 121°48'1011.2
2016-May-22 04:33N 37°40' E 121°36'12 1.5
2016-May-21 20:10N 37°34' E 121°23'0 0.0
2016-May-21 19:16N 37°34' E 121°23'0 0.0
2016-May-20 21:33N 37°34' E 121°23'0 0.0
2016-May-20 20:21N 37°34' E 121°23'0 0.0
2016-May-20 16:21N 37°34' E 121°23'0 0.0
2016-May-20 10:30N 37°34' E 121°23'7 7.5
2016-May-20 09:33N 37°39' E 121°30'1 1.1
2016-May-20 08:29N 37°39' E 121°31'0 0.0
2016-May-20 07:33N 37°39' E 121°31'0 0.0
2016-May-19 21:08N 37°39' E 121°31'0 0.7
2016-May-19 20:34N 37°39' E 121°32'21 8.7
2016-May-19 18:11N 37°57' E 121°20'912.4
2016-May-19 17:26N 38°06' E 121°16'1112.2
2016-May-19 16:34N 38°16' E 121°10'1410.5
2016-May-19 15:16N 38°28' E 121°03'9111.4
2016-May-19 07:20N 39°39' E 119°50'911.6
2016-May-19 06:33N 39°46' E 119°43'9 9.2
2016-May-19 05:34N 39°54' E 119°36'1 1.2
2016-May-19 04:32N 39°54' E 119°35'0 0.0
2016-May-19 03:26N 39°54' E 119°35'0 0.0
2016-May-19 02:32N 39°54' E 119°35'0 0.0
2016-May-19 01:32N 39°54' E 119°35'0 0.0
2016-May-19 00:20N 39°54' E 119°35'0 0.1
2016-May-18 23:32N 39°54' E 119°35'0 0.0
2016-May-18 22:26N 39°54' E 119°35'0 0.0
2016-May-18 21:32N 39°54' E 119°35'0 0.0
2016-May-18 20:32N 39°54' E 119°35'0 0.0
2016-May-18 19:14N 39°54' E 119°35'0 0.0
2016-May-18 18:20N 39°54' E 119°35'0 0.0
2016-May-18 17:26N 39°54' E 119°35'0 0.0
2016-May-18 14:20N 39°54' E 119°35'0 0.0
2016-May-18 11:08N 39°54' E 119°35'0 0.0
2016-May-18 10:32N 39°54' E 119°35'0 0.0
2016-May-18 09:26N 39°54' E 119°35'0 0.0
2016-May-18 08:08N 39°54' E 119°35'0 0.0
2016-May-18 07:32N 39°54' E 119°35'0 0.0
2016-May-18 06:32N 39°54' E 119°35'0 0.0
2016-May-18 04:32N 39°54' E 119°35'0 0.0
2016-May-18 03:26N 39°54' E 119°35'0 0.0
2016-May-17 21:26N 39°54' E 119°35'0 0.0
2016-May-17 19:08N 39°54' E 119°35'0 0.0
2016-May-17 18:32N 39°54' E 119°35'0 0.0
2016-May-17 17:32N 39°54' E 119°35'0 0.0
2016-May-17 16:32N 39°54' E 119°35'0 0.0
2016-May-17 14:26N 39°54' E 119°35'0 0.0
2016-May-17 13:32N 39°54' E 119°35'0 0.0
2016-May-17 12:32N 39°54' E 119°35'0 0.0
2016-May-17 11:26N 39°54' E 119°35'0 0.0
2016-May-17 09:26N 39°54' E 119°35'0 0.0
2016-May-17 08:33N 39°54' E 119°35'0 0.0
2016-May-17 07:34N 39°54' E 119°35'0 0.0
2016-May-17 06:33N 39°54' E 119°35'0 0.0
2016-May-17 05:33N 39°54' E 119°35'0 0.0
2016-May-17 04:32N 39°54' E 119°35'0 0.0
2016-May-17 03:32N 39°54' E 119°35'0 0.0
2016-May-17 02:33N 39°54' E 119°35'0 0.0
2016-May-17 01:33N 39°54' E 119°35'0 0.0
2016-May-17 00:34N 39°54' E 119°35'0 0.0
2016-May-16 23:29N 39°54' E 119°35'0 0.0
2016-May-16 22:33N 39°54' E 119°35'0 0.0
2016-May-16 21:33N 39°54' E 119°35'0 0.0
2016-May-16 20:33N 39°54' E 119°35'0 0.0
2016-May-16 19:32N 39°54' E 119°35'0 0.0
2016-May-16 18:32N 39°54' E 119°35'0 0.0
2016-May-16 17:33N 39°54' E 119°35'0 0.0
2016-May-16 16:33N 39°54' E 119°35'0 0.0
2016-May-16 15:30N 39°54' E 119°35'0 0.0
2016-May-16 14:32N 39°54' E 119°35'0 0.0
2016-May-16 13:34N 39°54' E 119°35'0 0.0
2016-May-16 12:33N 39°54' E 119°35'0 0.0
2016-May-16 11:34N 39°54' E 119°35'0 0.0
2016-May-16 10:34N 39°54' E 119°35'0 0.0
2016-May-16 09:34N 39°54' E 119°35'0 0.0
2016-May-16 08:33N 39°54' E 119°35'0 0.0
2016-May-16 07:33N 39°54' E 119°35'1 1.1
2016-May-16 06:34N 39°54' E 119°36'6 6.3
2016-May-16 05:33N 39°48' E 119°40'162 4.7
2016-May-14 19:05N 37°58' E 122°12'712.0
2016-May-14 18:30N 37°52' E 122°18'1212.6
2016-May-14 17:33N 37°45' E 122°30'1413.9
2016-May-14 16:32N 37°36' E 122°43'1414.0
2016-May-14 15:33N 37°24' E 122°51'1413.0
2016-May-14 14:28N 37°10' E 122°55'1112.5
2016-May-14 13:33N 36°59' E 122°57'1312.7
2016-May-14 12:31N 36°46' E 122°53'13213.1
2016-May-14 02:26N 34°34' E 123°07'  

Dump ship's entire track history